sensor_id;sensor_type;location;lat;lon;timestamp;P1;durP1;ratioP1;P2;durP2;ratioP2
62153;SDS011;48140;45.486;9.226;2023-02-28T00:00:12;5.97;;;4.20;;
62153;SDS011;48140;45.486;9.226;2023-02-28T00:02:42;7.05;;;3.80;;
62153;SDS011;48140;45.486;9.226;2023-02-28T00:05:10;5.30;;;3.58;;
62153;SDS011;48140;45.486;9.226;2023-02-28T00:07:37;7.45;;;3.90;;
62153;SDS011;48140;45.486;9.226;2023-02-28T00:10:03;5.65;;;3.20;;
62153;SDS011;48140;45.486;9.226;2023-02-28T00:12:31;7.15;;;3.70;;
62153;SDS011;48140;45.486;9.226;2023-02-28T00:14:57;6.40;;;3.00;;
62153;SDS011;48140;45.486;9.226;2023-02-28T00:17:23;9.32;;;3.45;;
62153;SDS011;48140;45.486;9.226;2023-02-28T00:19:48;10.27;;;3.45;;
62153;SDS011;48140;45.486;9.226;2023-02-28T00:22:15;5.43;;;2.72;;
62153;SDS011;48140;45.486;9.226;2023-02-28T00:24:42;9.73;;;3.60;;
62153;SDS011;48140;45.486;9.226;2023-02-28T00:27:08;5.85;;;3.00;;
62153;SDS011;48140;45.486;9.226;2023-02-28T00:29:34;5.22;;;2.80;;
62153;SDS011;48140;45.486;9.226;2023-02-28T00:31:59;5.80;;;3.17;;
62153;SDS011;48140;45.486;9.226;2023-02-28T00:34:25;4.90;;;2.78;;
62153;SDS011;48140;45.486;9.226;2023-02-28T00:36:50;5.53;;;3.15;;
62153;SDS011;48140;45.486;9.226;2023-02-28T00:39:16;5.43;;;2.83;;
62153;SDS011;48140;45.486;9.226;2023-02-28T00:41:42;4.22;;;2.95;;
62153;SDS011;48140;45.486;9.226;2023-02-28T00:44:07;5.05;;;2.58;;
62153;SDS011;48140;45.486;9.226;2023-02-28T00:46:34;5.75;;;3.17;;
62153;SDS011;48140;45.486;9.226;2023-02-28T00:49:00;9.75;;;3.67;;
62153;SDS011;48140;45.486;9.226;2023-02-28T00:51:25;6.25;;;3.10;;
62153;SDS011;48140;45.486;9.226;2023-02-28T00:53:51;4.75;;;3.08;;
62153;SDS011;48140;45.486;9.226;2023-02-28T00:56:17;6.28;;;3.05;;
62153;SDS011;48140;45.486;9.226;2023-02-28T00:58:42;9.65;;;3.22;;
62153;SDS011;48140;45.486;9.226;2023-02-28T01:01:08;4.82;;;2.63;;
62153;SDS011;48140;45.486;9.226;2023-02-28T01:03:34;6.88;;;3.30;;
62153;SDS011;48140;45.486;9.226;2023-02-28T01:05:59;5.53;;;3.13;;
62153;SDS011;48140;45.486;9.226;2023-02-28T01:08:25;6.78;;;3.10;;
62153;SDS011;48140;45.486;9.226;2023-02-28T01:10:52;6.05;;;3.03;;
62153;SDS011;48140;45.486;9.226;2023-02-28T01:13:18;6.63;;;3.05;;
62153;SDS011;48140;45.486;9.226;2023-02-28T01:15:51;6.65;;;3.13;;
62153;SDS011;48140;45.486;9.226;2023-02-28T01:18:20;4.90;;;3.30;;
62153;SDS011;48140;45.486;9.226;2023-02-28T01:20:46;5.15;;;3.30;;
62153;SDS011;48140;45.486;9.226;2023-02-28T01:23:12;8.02;;;3.20;;
62153;SDS011;48140;45.486;9.226;2023-02-28T01:25:38;7.18;;;3.22;;
62153;SDS011;48140;45.486;9.226;2023-02-28T01:28:03;6.10;;;3.10;;
62153;SDS011;48140;45.486;9.226;2023-02-28T01:30:30;7.03;;;3.60;;
62153;SDS011;48140;45.486;9.226;2023-02-28T01:32:57;5.53;;;3.13;;
62153;SDS011;48140;45.486;9.226;2023-02-28T01:35:22;6.72;;;3.58;;
62153;SDS011;48140;45.486;9.226;2023-02-28T01:37:48;7.57;;;4.05;;
62153;SDS011;48140;45.486;9.226;2023-02-28T01:40:14;6.80;;;3.45;;
62153;SDS011;48140;45.486;9.226;2023-02-28T01:42:39;5.07;;;3.10;;
62153;SDS011;48140;45.486;9.226;2023-02-28T01:48:02;4.88;;;3.03;;
62153;SDS011;48140;45.486;9.226;2023-02-28T01:50:31;4.88;;;3.03;;
62153;SDS011;48140;45.486;9.226;2023-02-28T01:53:02;6.20;;;3.40;;
62153;SDS011;48140;45.486;9.226;2023-02-28T01:55:31;7.35;;;3.10;;
62153;SDS011;48140;45.486;9.226;2023-02-28T01:58:00;6.07;;;3.08;;
62153;SDS011;48140;45.486;9.226;2023-02-28T02:00:29;7.00;;;3.65;;
62153;SDS011;48140;45.486;9.226;2023-02-28T02:02:57;13.25;;;3.28;;
62153;SDS011;48140;45.486;9.226;2023-02-28T02:05:27;5.38;;;3.17;;
62153;SDS011;48140;45.486;9.226;2023-02-28T02:07:56;8.52;;;3.22;;
62153;SDS011;48140;45.486;9.226;2023-02-28T02:10:32;6.30;;;3.60;;
62153;SDS011;48140;45.486;9.226;2023-02-28T02:13:04;6.25;;;3.22;;
62153;SDS011;48140;45.486;9.226;2023-02-28T02:16:04;9.20;;;3.20;;
62153;SDS011;48140;45.486;9.226;2023-02-28T02:18:34;7.20;;;3.35;;
62153;SDS011;48140;45.486;9.226;2023-02-28T02:35:19;5.32;;;3.17;;
62153;SDS011;48140;45.486;9.226;2023-02-28T02:38:14;7.75;;;3.30;;
62153;SDS011;48140;45.486;9.226;2023-02-28T02:40:56;4.97;;;3.03;;
62153;SDS011;48140;45.486;9.226;2023-02-28T02:43:25;7.78;;;3.78;;
62153;SDS011;48140;45.486;9.226;2023-02-28T02:46:02;4.13;;;2.88;;
62153;SDS011;48140;45.486;9.226;2023-02-28T02:48:38;12.25;;;3.38;;
62153;SDS011;48140;45.486;9.226;2023-02-28T02:51:09;8.30;;;3.70;;
62153;SDS011;48140;45.486;9.226;2023-02-28T02:53:49;5.95;;;3.25;;
62153;SDS011;48140;45.486;9.226;2023-02-28T02:56:24;5.40;;;2.90;;
62153;SDS011;48140;45.486;9.226;2023-02-28T02:58:53;5.68;;;3.22;;
62153;SDS011;48140;45.486;9.226;2023-02-28T03:01:24;8.20;;;3.80;;
62153;SDS011;48140;45.486;9.226;2023-02-28T03:03:56;6.30;;;3.47;;
62153;SDS011;48140;45.486;9.226;2023-02-28T03:06:24;13.10;;;3.85;;
62153;SDS011;48140;45.486;9.226;2023-02-28T03:08:50;5.13;;;3.28;;
62153;SDS011;48140;45.486;9.226;2023-02-28T03:11:16;6.25;;;3.30;;
62153;SDS011;48140;45.486;9.226;2023-02-28T03:13:52;4.57;;;2.85;;
62153;SDS011;48140;45.486;9.226;2023-02-28T03:16:28;8.05;;;3.33;;
62153;SDS011;48140;45.486;9.226;2023-02-28T03:18:58;4.07;;;2.80;;
62153;SDS011;48140;45.486;9.226;2023-02-28T03:27:10;6.85;;;3.28;;
62153;SDS011;48140;45.486;9.226;2023-02-28T03:29:48;7.40;;;3.40;;
62153;SDS011;48140;45.486;9.226;2023-02-28T03:32:24;7.35;;;3.28;;
62153;SDS011;48140;45.486;9.226;2023-02-28T03:37:28;4.47;;;3.17;;
62153;SDS011;48140;45.486;9.226;2023-02-28T03:39:59;4.00;;;2.95;;
62153;SDS011;48140;45.486;9.226;2023-02-28T03:42:36;6.45;;;3.42;;
62153;SDS011;48140;45.486;9.226;2023-02-28T03:45:08;5.82;;;3.40;;
62153;SDS011;48140;45.486;9.226;2023-02-28T03:47:40;5.35;;;2.50;;
62153;SDS011;48140;45.486;9.226;2023-02-28T03:52:56;6.95;;;3.92;;
62153;SDS011;48140;45.486;9.226;2023-02-28T03:55:30;6.63;;;3.15;;
62153;SDS011;48140;45.486;9.226;2023-02-28T04:01:03;6.18;;;3.35;;
62153;SDS011;48140;45.486;9.226;2023-02-28T04:03:35;5.03;;;2.90;;
62153;SDS011;48140;45.486;9.226;2023-02-28T04:06:02;5.93;;;3.00;;
62153;SDS011;48140;45.486;9.226;2023-02-28T04:08:29;4.63;;;3.17;;
62153;SDS011;48140;45.486;9.226;2023-02-28T04:10:59;5.53;;;3.10;;
62153;SDS011;48140;45.486;9.226;2023-02-28T04:13:29;5.75;;;3.22;;
62153;SDS011;48140;45.486;9.226;2023-02-28T04:15:54;7.07;;;3.22;;
62153;SDS011;48140;45.486;9.226;2023-02-28T04:18:20;5.53;;;3.00;;
62153;SDS011;48140;45.486;9.226;2023-02-28T04:20:46;6.25;;;2.97;;
62153;SDS011;48140;45.486;9.226;2023-02-28T04:23:11;10.30;;;3.17;;
62153;SDS011;48140;45.486;9.226;2023-02-28T04:25:37;5.05;;;3.28;;
62153;SDS011;48140;45.486;9.226;2023-02-28T04:28:05;6.68;;;3.67;;
62153;SDS011;48140;45.486;9.226;2023-02-28T04:30:30;6.07;;;3.60;;
62153;SDS011;48140;45.486;9.226;2023-02-28T04:32:57;6.85;;;3.35;;
62153;SDS011;48140;45.486;9.226;2023-02-28T04:35:23;5.30;;;3.25;;
62153;SDS011;48140;45.486;9.226;2023-02-28T04:37:49;5.40;;;3.47;;
62153;SDS011;48140;45.486;9.226;2023-02-28T04:40:14;6.93;;;3.05;;
62153;SDS011;48140;45.486;9.226;2023-02-28T04:42:40;9.05;;;3.53;;
62153;SDS011;48140;45.486;9.226;2023-02-28T04:45:06;6.03;;;3.47;;
62153;SDS011;48140;45.486;9.226;2023-02-28T04:47:35;5.40;;;3.33;;
62153;SDS011;48140;45.486;9.226;2023-02-28T04:50:01;5.57;;;2.97;;
62153;SDS011;48140;45.486;9.226;2023-02-28T04:52:27;5.05;;;2.90;;
62153;SDS011;48140;45.486;9.226;2023-02-28T04:54:52;9.20;;;3.45;;
62153;SDS011;48140;45.486;9.226;2023-02-28T04:57:18;7.88;;;3.80;;
62153;SDS011;48140;45.486;9.226;2023-02-28T04:59:43;7.32;;;3.90;;
62153;SDS011;48140;45.486;9.226;2023-02-28T05:02:09;5.38;;;3.00;;
62153;SDS011;48140;45.486;9.226;2023-02-28T05:04:35;5.03;;;3.30;;
62153;SDS011;48140;45.486;9.226;2023-02-28T05:07:01;8.90;;;3.75;;
62153;SDS011;48140;45.486;9.226;2023-02-28T05:09:28;5.60;;;3.50;;
62153;SDS011;48140;45.486;9.226;2023-02-28T05:11:53;6.32;;;3.47;;
62153;SDS011;48140;45.486;9.226;2023-02-28T05:14:19;6.47;;;3.50;;
62153;SDS011;48140;45.486;9.226;2023-02-28T05:16:45;5.57;;;3.30;;
62153;SDS011;48140;45.486;9.226;2023-02-28T05:19:11;5.97;;;2.95;;
62153;SDS011;48140;45.486;9.226;2023-02-28T05:21:55;4.97;;;3.25;;
62153;SDS011;48140;45.486;9.226;2023-02-28T05:24:21;5.93;;;3.53;;
62153;SDS011;48140;45.486;9.226;2023-02-28T05:26:50;8.35;;;3.60;;
62153;SDS011;48140;45.486;9.226;2023-02-28T05:29:17;4.68;;;2.88;;
62153;SDS011;48140;45.486;9.226;2023-02-28T05:31:44;5.82;;;3.70;;
62153;SDS011;48140;45.486;9.226;2023-02-28T05:34:09;9.82;;;3.30;;
62153;SDS011;48140;45.486;9.226;2023-02-28T05:36:37;7.13;;;3.65;;
62153;SDS011;48140;45.486;9.226;2023-02-28T05:39:06;6.25;;;3.58;;
62153;SDS011;48140;45.486;9.226;2023-02-28T05:41:37;5.30;;;3.33;;
62153;SDS011;48140;45.486;9.226;2023-02-28T05:44:03;4.68;;;3.20;;
62153;SDS011;48140;45.486;9.226;2023-02-28T05:46:29;8.45;;;3.72;;
62153;SDS011;48140;45.486;9.226;2023-02-28T05:48:55;6.78;;;3.72;;
62153;SDS011;48140;45.486;9.226;2023-02-28T05:51:22;6.97;;;3.88;;
62153;SDS011;48140;45.486;9.226;2023-02-28T05:53:49;5.97;;;3.45;;
62153;SDS011;48140;45.486;9.226;2023-02-28T05:56:15;6.45;;;3.67;;
62153;SDS011;48140;45.486;9.226;2023-02-28T05:58:41;5.38;;;3.33;;
62153;SDS011;48140;45.486;9.226;2023-02-28T06:04:13;6.07;;;2.95;;
62153;SDS011;48140;45.486;9.226;2023-02-28T06:06:42;15.10;;;4.05;;
62153;SDS011;48140;45.486;9.226;2023-02-28T06:09:09;5.63;;;3.50;;
62153;SDS011;48140;45.486;9.226;2023-02-28T06:11:35;5.18;;;3.50;;
62153;SDS011;48140;45.486;9.226;2023-02-28T06:14:01;5.65;;;3.67;;
62153;SDS011;48140;45.486;9.226;2023-02-28T06:16:28;7.10;;;3.97;;
62153;SDS011;48140;45.486;9.226;2023-02-28T06:18:57;8.18;;;4.18;;
62153;SDS011;48140;45.486;9.226;2023-02-28T06:21:25;7.43;;;3.85;;
62153;SDS011;48140;45.486;9.226;2023-02-28T06:23:52;5.53;;;3.40;;
62153;SDS011;48140;45.486;9.226;2023-02-28T06:26:18;5.85;;;3.35;;
62153;SDS011;48140;45.486;9.226;2023-02-28T06:28:44;6.90;;;4.10;;
62153;SDS011;48140;45.486;9.226;2023-02-28T06:31:11;5.38;;;3.40;;
62153;SDS011;48140;45.486;9.226;2023-02-28T06:33:38;6.13;;;3.33;;
62153;SDS011;48140;45.486;9.226;2023-02-28T06:36:04;6.38;;;4.15;;
62153;SDS011;48140;45.486;9.226;2023-02-28T06:38:31;6.80;;;3.47;;
62153;SDS011;48140;45.486;9.226;2023-02-28T06:40:58;7.97;;;3.95;;
62153;SDS011;48140;45.486;9.226;2023-02-28T06:43:25;7.82;;;3.95;;
62153;SDS011;48140;45.486;9.226;2023-02-28T06:45:57;6.97;;;3.95;;
62153;SDS011;48140;45.486;9.226;2023-02-28T06:48:23;10.43;;;4.10;;
62153;SDS011;48140;45.486;9.226;2023-02-28T06:50:50;5.65;;;3.30;;
62153;SDS011;48140;45.486;9.226;2023-02-28T06:53:16;8.15;;;4.47;;
62153;SDS011;48140;45.486;9.226;2023-02-28T06:55:42;6.28;;;3.70;;
62153;SDS011;48140;45.486;9.226;2023-02-28T06:58:08;7.03;;;3.92;;
62153;SDS011;48140;45.486;9.226;2023-02-28T07:00:43;14.45;;;4.30;;
62153;SDS011;48140;45.486;9.226;2023-02-28T07:03:10;10.32;;;4.65;;
62153;SDS011;48140;45.486;9.226;2023-02-28T07:05:38;6.80;;;3.85;;
62153;SDS011;48140;45.486;9.226;2023-02-28T07:08:05;6.97;;;4.22;;
62153;SDS011;48140;45.486;9.226;2023-02-28T07:10:31;9.40;;;4.10;;
62153;SDS011;48140;45.486;9.226;2023-02-28T07:13:02;8.27;;;4.63;;
62153;SDS011;48140;45.486;9.226;2023-02-28T07:15:29;11.88;;;4.53;;
62153;SDS011;48140;45.486;9.226;2023-02-28T07:17:55;7.47;;;4.70;;
62153;SDS011;48140;45.486;9.226;2023-02-28T07:20:21;8.15;;;4.38;;
62153;SDS011;48140;45.486;9.226;2023-02-28T07:22:48;9.35;;;5.20;;
62153;SDS011;48140;45.486;9.226;2023-02-28T07:25:20;10.05;;;4.43;;
62153;SDS011;48140;45.486;9.226;2023-02-28T07:27:46;8.88;;;4.80;;
62153;SDS011;48140;45.486;9.226;2023-02-28T07:30:13;8.60;;;4.18;;
62153;SDS011;48140;45.486;9.226;2023-02-28T07:32:39;7.38;;;4.28;;
62153;SDS011;48140;45.486;9.226;2023-02-28T07:35:04;10.98;;;4.72;;
62153;SDS011;48140;45.486;9.226;2023-02-28T07:37:30;11.70;;;4.65;;
62153;SDS011;48140;45.486;9.226;2023-02-28T07:39:56;8.00;;;4.10;;
62153;SDS011;48140;45.486;9.226;2023-02-28T07:42:22;9.45;;;5.35;;
62153;SDS011;48140;45.486;9.226;2023-02-28T07:44:48;10.50;;;5.05;;
62153;SDS011;48140;45.486;9.226;2023-02-28T07:47:13;6.28;;;3.85;;
62153;SDS011;48140;45.486;9.226;2023-02-28T07:49:39;8.95;;;4.72;;
62153;SDS011;48140;45.486;9.226;2023-02-28T07:52:05;7.07;;;4.65;;
62153;SDS011;48140;45.486;9.226;2023-02-28T07:54:31;9.75;;;5.25;;
62153;SDS011;48140;45.486;9.226;2023-02-28T07:56:58;8.63;;;4.93;;
62153;SDS011;48140;45.486;9.226;2023-02-28T07:59:24;9.57;;;4.90;;
62153;SDS011;48140;45.486;9.226;2023-02-28T08:01:50;11.88;;;5.90;;
62153;SDS011;48140;45.486;9.226;2023-02-28T08:04:16;11.50;;;5.18;;
62153;SDS011;48140;45.486;9.226;2023-02-28T08:06:42;8.55;;;4.68;;
62153;SDS011;48140;45.486;9.226;2023-02-28T08:09:08;9.63;;;5.43;;
62153;SDS011;48140;45.486;9.226;2023-02-28T08:11:34;9.30;;;5.25;;
62153;SDS011;48140;45.486;9.226;2023-02-28T08:14:01;12.25;;;4.65;;
62153;SDS011;48140;45.486;9.226;2023-02-28T08:16:26;12.93;;;5.45;;
62153;SDS011;48140;45.486;9.226;2023-02-28T08:18:52;7.55;;;5.30;;
62153;SDS011;48140;45.486;9.226;2023-02-28T08:21:18;7.88;;;4.85;;
62153;SDS011;48140;45.486;9.226;2023-02-28T08:23:47;8.48;;;4.68;;
62153;SDS011;48140;45.486;9.226;2023-02-28T08:26:14;14.00;;;4.78;;
62153;SDS011;48140;45.486;9.226;2023-02-28T08:28:40;11.18;;;5.88;;
62153;SDS011;48140;45.486;9.226;2023-02-28T08:31:08;9.95;;;5.15;;
62153;SDS011;48140;45.486;9.226;2023-02-28T08:33:35;12.98;;;5.53;;
62153;SDS011;48140;45.486;9.226;2023-02-28T08:36:01;10.88;;;5.55;;
62153;SDS011;48140;45.486;9.226;2023-02-28T08:38:27;8.93;;;5.25;;
62153;SDS011;48140;45.486;9.226;2023-02-28T08:40:59;12.40;;;5.78;;
62153;SDS011;48140;45.486;9.226;2023-02-28T08:43:26;10.77;;;6.10;;
62153;SDS011;48140;45.486;9.226;2023-02-28T08:45:53;12.90;;;6.22;;
62153;SDS011;48140;45.486;9.226;2023-02-28T08:48:21;9.15;;;5.78;;
62153;SDS011;48140;45.486;9.226;2023-02-28T08:51:03;8.50;;;5.47;;
62153;SDS011;48140;45.486;9.226;2023-02-28T08:53:31;9.50;;;5.18;;
62153;SDS011;48140;45.486;9.226;2023-02-28T08:55:58;9.18;;;5.13;;
62153;SDS011;48140;45.486;9.226;2023-02-28T08:58:29;9.02;;;4.95;;
62153;SDS011;48140;45.486;9.226;2023-02-28T09:00:55;7.38;;;4.47;;
62153;SDS011;48140;45.486;9.226;2023-02-28T09:03:21;8.60;;;4.35;;
62153;SDS011;48140;45.486;9.226;2023-02-28T09:10:46;8.73;;;4.15;;
62153;SDS011;48140;45.486;9.226;2023-02-28T09:13:12;6.18;;;4.18;;
62153;SDS011;48140;45.486;9.226;2023-02-28T09:15:38;7.45;;;3.90;;
62153;SDS011;48140;45.486;9.226;2023-02-28T09:18:04;7.85;;;4.00;;
62153;SDS011;48140;45.486;9.226;2023-02-28T09:20:29;8.07;;;4.43;;
62153;SDS011;48140;45.486;9.226;2023-02-28T09:22:55;10.23;;;4.13;;
62153;SDS011;48140;45.486;9.226;2023-02-28T09:25:21;5.95;;;3.58;;
62153;SDS011;48140;45.486;9.226;2023-02-28T09:27:46;9.23;;;4.53;;
62153;SDS011;48140;45.486;9.226;2023-02-28T09:30:12;7.10;;;4.32;;
62153;SDS011;48140;45.486;9.226;2023-02-28T09:32:38;6.57;;;3.95;;
62153;SDS011;48140;45.486;9.226;2023-02-28T09:35:04;8.63;;;4.47;;
62153;SDS011;48140;45.486;9.226;2023-02-28T09:37:30;7.95;;;4.70;;
62153;SDS011;48140;45.486;9.226;2023-02-28T09:39:56;8.43;;;4.15;;
62153;SDS011;48140;45.486;9.226;2023-02-28T09:42:23;7.82;;;4.25;;
62153;SDS011;48140;45.486;9.226;2023-02-28T09:44:55;8.45;;;5.03;;
62153;SDS011;48140;45.486;9.226;2023-02-28T09:49:54;8.45;;;5.00;;
62153;SDS011;48140;45.486;9.226;2023-02-28T09:52:25;8.98;;;4.97;;
62153;SDS011;48140;45.486;9.226;2023-02-28T09:54:55;10.63;;;4.75;;
62153;SDS011;48140;45.486;9.226;2023-02-28T09:57:36;6.40;;;4.05;;
62153;SDS011;48140;45.486;9.226;2023-02-28T10:05:30;8.23;;;4.85;;
62153;SDS011;48140;45.486;9.226;2023-02-28T10:10:44;12.18;;;5.32;;
62153;SDS011;48140;45.486;9.226;2023-02-28T10:13:22;9.18;;;4.18;;
62153;SDS011;48140;45.486;9.226;2023-02-28T10:16:06;8.23;;;4.88;;
62153;SDS011;48140;45.486;9.226;2023-02-28T10:26:46;11.20;;;4.18;;
62153;SDS011;48140;45.486;9.226;2023-02-28T10:29:13;7.53;;;4.85;;
62153;SDS011;48140;45.486;9.226;2023-02-28T10:31:39;8.32;;;4.95;;
62153;SDS011;48140;45.486;9.226;2023-02-28T10:34:05;9.55;;;5.60;;
62153;SDS011;48140;45.486;9.226;2023-02-28T10:36:31;6.95;;;4.63;;
62153;SDS011;48140;45.486;9.226;2023-02-28T10:38:57;11.38;;;5.00;;
62153;SDS011;48140;45.486;9.226;2023-02-28T10:41:31;10.57;;;4.93;;
62153;SDS011;48140;45.486;9.226;2023-02-28T10:44:20;10.65;;;5.28;;
62153;SDS011;48140;45.486;9.226;2023-02-28T10:46:48;7.97;;;4.72;;
62153;SDS011;48140;45.486;9.226;2023-02-28T10:49:27;9.07;;;5.25;;
62153;SDS011;48140;45.486;9.226;2023-02-28T10:51:57;10.45;;;5.13;;
62153;SDS011;48140;45.486;9.226;2023-02-28T10:54:29;9.80;;;4.97;;
62153;SDS011;48140;45.486;9.226;2023-02-28T10:57:14;9.13;;;4.95;;
62153;SDS011;48140;45.486;9.226;2023-02-28T10:59:44;7.35;;;4.60;;
62153;SDS011;48140;45.486;9.226;2023-02-28T11:02:30;7.68;;;4.80;;
62153;SDS011;48140;45.486;9.226;2023-02-28T11:04:58;9.20;;;5.00;;
62153;SDS011;48140;45.486;9.226;2023-02-28T11:07:23;8.77;;;4.60;;
62153;SDS011;48140;45.486;9.226;2023-02-28T11:09:51;8.63;;;4.90;;
62153;SDS011;48140;45.486;9.226;2023-02-28T11:12:22;7.97;;;4.97;;
62153;SDS011;48140;45.486;9.226;2023-02-28T11:17:28;9.82;;;5.22;;
62153;SDS011;48140;45.486;9.226;2023-02-28T11:19:58;10.52;;;5.65;;
62153;SDS011;48140;45.486;9.226;2023-02-28T11:22:36;9.55;;;5.93;;
62153;SDS011;48140;45.486;9.226;2023-02-28T11:25:09;9.50;;;6.15;;
62153;SDS011;48140;45.486;9.226;2023-02-28T11:27:48;13.20;;;6.40;;
62153;SDS011;48140;45.486;9.226;2023-02-28T11:30:29;8.20;;;5.60;;
62153;SDS011;48140;45.486;9.226;2023-02-28T11:33:00;10.13;;;6.30;;
62153;SDS011;48140;45.486;9.226;2023-02-28T11:35:43;11.20;;;6.82;;
62153;SDS011;48140;45.486;9.226;2023-02-28T11:38:09;8.90;;;5.78;;
62153;SDS011;48140;45.486;9.226;2023-02-28T11:40:43;13.77;;;6.53;;
62153;SDS011;48140;45.486;9.226;2023-02-28T11:49:13;14.07;;;7.15;;
62153;SDS011;48140;45.486;9.226;2023-02-28T11:54:47;10.20;;;6.20;;
62153;SDS011;48140;45.486;9.226;2023-02-28T12:03:11;12.50;;;6.40;;
62153;SDS011;48140;45.486;9.226;2023-02-28T12:16:57;10.60;;;7.00;;
62153;SDS011;48140;45.486;9.226;2023-02-28T12:19:26;12.85;;;6.97;;
62153;SDS011;48140;45.486;9.226;2023-02-28T12:22:20;10.35;;;7.32;;
62153;SDS011;48140;45.486;9.226;2023-02-28T12:27:58;10.90;;;6.03;;
62153;SDS011;48140;45.486;9.226;2023-02-28T12:30:31;10.80;;;7.00;;
62153;SDS011;48140;45.486;9.226;2023-02-28T12:33:08;12.63;;;6.95;;
62153;SDS011;48140;45.486;9.226;2023-02-28T12:35:47;16.60;;;7.75;;
62153;SDS011;48140;45.486;9.226;2023-02-28T12:38:20;12.30;;;7.70;;
62153;SDS011;48140;45.486;9.226;2023-02-28T12:41:03;12.85;;;7.55;;
62153;SDS011;48140;45.486;9.226;2023-02-28T12:43:37;10.10;;;7.25;;
62153;SDS011;48140;45.486;9.226;2023-02-28T12:46:09;11.00;;;7.22;;
62153;SDS011;48140;45.486;9.226;2023-02-28T12:48:42;10.15;;;6.95;;
62153;SDS011;48140;45.486;9.226;2023-02-28T12:51:11;10.98;;;6.88;;
62153;SDS011;48140;45.486;9.226;2023-02-28T12:56:33;11.57;;;6.65;;
62153;SDS011;48140;45.486;9.226;2023-02-28T13:02:02;12.45;;;7.95;;
62153;SDS011;48140;45.486;9.226;2023-02-28T13:13:25;12.13;;;7.45;;
62153;SDS011;48140;45.486;9.226;2023-02-28T13:18:34;13.20;;;7.05;;
62153;SDS011;48140;45.486;9.226;2023-02-28T13:21:06;11.75;;;7.40;;
62153;SDS011;48140;45.486;9.226;2023-02-28T13:23:38;11.93;;;6.88;;
62153;SDS011;48140;45.486;9.226;2023-02-28T13:26:17;12.60;;;7.22;;
62153;SDS011;48140;45.486;9.226;2023-02-28T13:31:20;13.05;;;8.02;;
62153;SDS011;48140;45.486;9.226;2023-02-28T13:38:50;10.15;;;6.85;;
62153;SDS011;48140;45.486;9.226;2023-02-28T13:42:01;14.95;;;6.82;;
62153;SDS011;48140;45.486;9.226;2023-02-28T13:44:18;11.52;;;6.82;;
62153;SDS011;48140;45.486;9.226;2023-02-28T13:57:27;10.57;;;6.75;;
62153;SDS011;48140;45.486;9.226;2023-02-28T14:00:17;10.23;;;7.13;;
62153;SDS011;48140;45.486;9.226;2023-02-28T14:05:47;10.20;;;6.82;;
62153;SDS011;48140;45.486;9.226;2023-02-28T14:09:03;10.82;;;7.07;;
62153;SDS011;48140;45.486;9.226;2023-02-28T14:11:43;11.15;;;7.32;;
62153;SDS011;48140;45.486;9.226;2023-02-28T14:14:09;10.55;;;7.70;;
62153;SDS011;48140;45.486;9.226;2023-02-28T14:17:01;12.77;;;7.38;;
62153;SDS011;48140;45.486;9.226;2023-02-28T14:19:30;11.60;;;7.75;;
62153;SDS011;48140;45.486;9.226;2023-02-28T14:33:00;10.80;;;7.28;;
62153;SDS011;48140;45.486;9.226;2023-02-28T14:41:17;10.88;;;6.90;;
62153;SDS011;48140;45.486;9.226;2023-02-28T14:43:58;11.73;;;7.63;;
62153;SDS011;48140;45.486;9.226;2023-02-28T14:46:26;15.70;;;7.28;;
62153;SDS011;48140;45.486;9.226;2023-02-28T14:48:57;14.27;;;7.45;;
62153;SDS011;48140;45.486;9.226;2023-02-28T14:51:24;12.27;;;6.93;;
62153;SDS011;48140;45.486;9.226;2023-02-28T14:53:52;11.45;;;7.60;;
62153;SDS011;48140;45.486;9.226;2023-02-28T14:56:28;11.80;;;7.85;;
62153;SDS011;48140;45.486;9.226;2023-02-28T14:59:03;14.38;;;7.68;;
62153;SDS011;48140;45.486;9.226;2023-02-28T15:01:31;12.10;;;7.90;;
62153;SDS011;48140;45.486;9.226;2023-02-28T15:04:00;10.82;;;7.20;;
62153;SDS011;48140;45.486;9.226;2023-02-28T15:06:31;11.85;;;7.82;;
62153;SDS011;48140;45.486;9.226;2023-02-28T15:09:10;12.98;;;8.18;;
62153;SDS011;48140;45.486;9.226;2023-02-28T15:11:41;12.02;;;7.60;;
62153;SDS011;48140;45.486;9.226;2023-02-28T15:14:13;13.63;;;8.27;;
62153;SDS011;48140;45.486;9.226;2023-02-28T15:16:45;12.95;;;7.18;;
62153;SDS011;48140;45.486;9.226;2023-02-28T15:19:36;11.23;;;7.47;;
62153;SDS011;48140;45.486;9.226;2023-02-28T15:22:07;11.45;;;7.53;;
62153;SDS011;48140;45.486;9.226;2023-02-28T15:24:41;9.95;;;7.20;;
62153;SDS011;48140;45.486;9.226;2023-02-28T15:27:21;9.85;;;7.13;;
62153;SDS011;48140;45.486;9.226;2023-02-28T15:29:54;12.48;;;7.32;;
62153;SDS011;48140;45.486;9.226;2023-02-28T15:34:58;12.18;;;8.10;;
62153;SDS011;48140;45.486;9.226;2023-02-28T15:37:48;11.45;;;7.47;;
62153;SDS011;48140;45.486;9.226;2023-02-28T15:42:58;12.25;;;7.78;;
62153;SDS011;48140;45.486;9.226;2023-02-28T15:45:28;12.23;;;8.35;;
62153;SDS011;48140;45.486;9.226;2023-02-28T15:48:02;10.90;;;7.78;;
62153;SDS011;48140;45.486;9.226;2023-02-28T15:50:28;12.90;;;7.78;;
62153;SDS011;48140;45.486;9.226;2023-02-28T15:52:54;11.52;;;7.10;;
62153;SDS011;48140;45.486;9.226;2023-02-28T15:55:21;14.43;;;8.27;;
62153;SDS011;48140;45.486;9.226;2023-02-28T15:57:52;10.50;;;6.68;;
62153;SDS011;48140;45.486;9.226;2023-02-28T16:00:23;9.95;;;7.50;;
62153;SDS011;48140;45.486;9.226;2023-02-28T16:02:50;13.85;;;7.43;;
62153;SDS011;48140;45.486;9.226;2023-02-28T16:05:18;20.20;;;11.70;;
62153;SDS011;48140;45.486;9.226;2023-02-28T16:07:53;21.35;;;12.77;;
62153;SDS011;48140;45.486;9.226;2023-02-28T16:10:22;12.65;;;7.85;;
62153;SDS011;48140;45.486;9.226;2023-02-28T16:12:52;11.25;;;7.13;;
62153;SDS011;48140;45.486;9.226;2023-02-28T16:15:19;14.18;;;7.97;;
62153;SDS011;48140;45.486;9.226;2023-02-28T16:17:47;12.32;;;7.93;;
62153;SDS011;48140;45.486;9.226;2023-02-28T16:20:35;12.20;;;7.47;;
62153;SDS011;48140;45.486;9.226;2023-02-28T16:23:00;11.23;;;7.43;;
62153;SDS011;48140;45.486;9.226;2023-02-28T16:25:34;12.40;;;8.10;;
62153;SDS011;48140;45.486;9.226;2023-02-28T16:28:02;13.35;;;8.02;;
62153;SDS011;48140;45.486;9.226;2023-02-28T16:30:28;13.65;;;7.88;;
62153;SDS011;48140;45.486;9.226;2023-02-28T16:32:57;15.50;;;8.23;;
62153;SDS011;48140;45.486;9.226;2023-02-28T16:35:23;12.18;;;7.63;;
62153;SDS011;48140;45.486;9.226;2023-02-28T16:37:53;12.73;;;8.10;;
62153;SDS011;48140;45.486;9.226;2023-02-28T16:40:20;14.43;;;9.13;;
62153;SDS011;48140;45.486;9.226;2023-02-28T16:42:51;14.05;;;8.35;;
62153;SDS011;48140;45.486;9.226;2023-02-28T16:45:22;14.57;;;8.30;;
62153;SDS011;48140;45.486;9.226;2023-02-28T16:47:50;16.40;;;8.02;;
62153;SDS011;48140;45.486;9.226;2023-02-28T16:50:16;15.75;;;7.45;;
62153;SDS011;48140;45.486;9.226;2023-02-28T16:52:44;14.18;;;8.60;;
62153;SDS011;48140;45.486;9.226;2023-02-28T16:55:11;45.60;;;22.90;;
62153;SDS011;48140;45.486;9.226;2023-02-28T16:57:37;14.27;;;8.82;;
62153;SDS011;48140;45.486;9.226;2023-02-28T17:00:05;14.77;;;7.78;;
62153;SDS011;48140;45.486;9.226;2023-02-28T17:02:33;16.95;;;8.65;;
62153;SDS011;48140;45.486;9.226;2023-02-28T17:04:59;17.35;;;8.23;;
62153;SDS011;48140;45.486;9.226;2023-02-28T17:07:24;13.68;;;8.25;;
62153;SDS011;48140;45.486;9.226;2023-02-28T17:09:50;14.95;;;7.97;;
62153;SDS011;48140;45.486;9.226;2023-02-28T17:12:16;13.52;;;7.65;;
62153;SDS011;48140;45.486;9.226;2023-02-28T17:14:41;13.77;;;8.23;;
62153;SDS011;48140;45.486;9.226;2023-02-28T17:17:09;14.05;;;8.35;;
62153;SDS011;48140;45.486;9.226;2023-02-28T17:19:43;14.50;;;8.05;;
62153;SDS011;48140;45.486;9.226;2023-02-28T17:22:09;13.05;;;8.60;;
62153;SDS011;48140;45.486;9.226;2023-02-28T17:24:35;14.27;;;7.95;;
62153;SDS011;48140;45.486;9.226;2023-02-28T17:27:01;14.27;;;7.78;;